Weather at Finley Airport

Public forecast

Using degrees Celsius for public forecast. Weather courtesy of forecast.io.

Closest aviation weather report (METAR) to Finley Airport

Report is more than 6 hours old.

Closest report is Wangaratta Airport, 58.1 nm (107.6 km) SE. Retrieved 2022/05/21 03:52 UTC (6 hours ago):

YWGT 210352Z AUTO 18005KT 9999 // NCD 19/06 Q1030

Closest aviation forecast (TAF) to Finley Airport

Forecast is more than 12 hours old.

Closest forecast is Wangaratta Airport, 58.1 nm (107.6 km) SE. Retrieved 2022/05/11 20:03 UTC (10 days ago):

TAF TAF YWGT 111803Z 1120/1208 16005KT 9999 -RA BKN040 FM120200 12005KT 9999 -RA BKN025 TEMPO 1120/1208 4000 RA SCT015 BKN020